sensor_id;sensor_type;location;lat;lon;timestamp;P1;durP1;ratioP1;P2;durP2;ratioP2
28523;SDS011;15734;50.904;6.922;2023-12-29T00:00:17;4.65;;;1.23;;
28523;SDS011;15734;50.904;6.922;2023-12-29T00:02:43;4.43;;;1.02;;
28523;SDS011;15734;50.904;6.922;2023-12-29T00:05:08;4.32;;;1.30;;
28523;SDS011;15734;50.904;6.922;2023-12-29T00:07:34;2.42;;;1.02;;
28523;SDS011;15734;50.904;6.922;2023-12-29T00:09:59;3.00;;;1.10;;
28523;SDS011;15734;50.904;6.922;2023-12-29T00:12:25;5.65;;;1.27;;
28523;SDS011;15734;50.904;6.922;2023-12-29T00:14:50;5.72;;;1.15;;
28523;SDS011;15734;50.904;6.922;2023-12-29T00:17:16;4.70;;;1.20;;
28523;SDS011;15734;50.904;6.922;2023-12-29T00:19:41;5.10;;;1.13;;
28523;SDS011;15734;50.904;6.922;2023-12-29T00:22:07;5.82;;;1.30;;
28523;SDS011;15734;50.904;6.922;2023-12-29T00:24:32;9.32;;;1.63;;
28523;SDS011;15734;50.904;6.922;2023-12-29T00:26:58;3.63;;;0.88;;
28523;SDS011;15734;50.904;6.922;2023-12-29T00:29:24;5.18;;;1.30;;
28523;SDS011;15734;50.904;6.922;2023-12-29T00:31:50;5.65;;;1.48;;
28523;SDS011;15734;50.904;6.922;2023-12-29T00:34:15;6.88;;;1.50;;
28523;SDS011;15734;50.904;6.922;2023-12-29T00:36:41;7.55;;;0.98;;
28523;SDS011;15734;50.904;6.922;2023-12-29T00:39:06;11.60;;;1.42;;
28523;SDS011;15734;50.904;6.922;2023-12-29T00:41:32;4.63;;;0.90;;
28523;SDS011;15734;50.904;6.922;2023-12-29T00:43:57;5.93;;;1.15;;
28523;SDS011;15734;50.904;6.922;2023-12-29T00:46:23;4.20;;;1.20;;
28523;SDS011;15734;50.904;6.922;2023-12-29T00:48:48;6.57;;;1.02;;
28523;SDS011;15734;50.904;6.922;2023-12-29T00:51:14;4.70;;;1.17;;
28523;SDS011;15734;50.904;6.922;2023-12-29T00:53:39;6.90;;;1.52;;
28523;SDS011;15734;50.904;6.922;2023-12-29T00:56:11;7.32;;;1.48;;
28523;SDS011;15734;50.904;6.922;2023-12-29T00:58:37;7.50;;;1.38;;
28523;SDS011;15734;50.904;6.922;2023-12-29T01:01:03;13.23;;;1.70;;
28523;SDS011;15734;50.904;6.922;2023-12-29T01:03:29;6.45;;;1.50;;
28523;SDS011;15734;50.904;6.922;2023-12-29T01:05:55;7.25;;;1.90;;
28523;SDS011;15734;50.904;6.922;2023-12-29T01:08:20;6.60;;;1.35;;
28523;SDS011;15734;50.904;6.922;2023-12-29T01:10:46;8.13;;;1.30;;
28523;SDS011;15734;50.904;6.922;2023-12-29T01:13:11;7.53;;;1.35;;
28523;SDS011;15734;50.904;6.922;2023-12-29T01:15:37;7.53;;;1.50;;
28523;SDS011;15734;50.904;6.922;2023-12-29T01:18:03;2.60;;;1.08;;
28523;SDS011;15734;50.904;6.922;2023-12-29T01:20:28;4.28;;;1.33;;
28523;SDS011;15734;50.904;6.922;2023-12-29T01:22:54;8.88;;;1.63;;
28523;SDS011;15734;50.904;6.922;2023-12-29T01:25:19;10.13;;;1.50;;
28523;SDS011;15734;50.904;6.922;2023-12-29T01:27:45;5.85;;;2.35;;
28523;SDS011;15734;50.904;6.922;2023-12-29T01:30:11;6.03;;;1.65;;
28523;SDS011;15734;50.904;6.922;2023-12-29T01:32:36;9.15;;;1.60;;
28523;SDS011;15734;50.904;6.922;2023-12-29T01:35:02;6.05;;;1.63;;
28523;SDS011;15734;50.904;6.922;2023-12-29T01:37:28;5.05;;;1.20;;
28523;SDS011;15734;50.904;6.922;2023-12-29T01:39:53;5.72;;;1.50;;
28523;SDS011;15734;50.904;6.922;2023-12-29T01:42:19;10.10;;;1.83;;
28523;SDS011;15734;50.904;6.922;2023-12-29T01:44:44;7.45;;;1.67;;
28523;SDS011;15734;50.904;6.922;2023-12-29T01:47:11;4.85;;;1.70;;
28523;SDS011;15734;50.904;6.922;2023-12-29T01:49:40;9.55;;;2.83;;
28523;SDS011;15734;50.904;6.922;2023-12-29T01:52:08;6.72;;;1.67;;
28523;SDS011;15734;50.904;6.922;2023-12-29T01:54:35;8.80;;;1.52;;
28523;SDS011;15734;50.904;6.922;2023-12-29T01:57:03;3.55;;;1.25;;
28523;SDS011;15734;50.904;6.922;2023-12-29T01:59:29;7.03;;;1.58;;
28523;SDS011;15734;50.904;6.922;2023-12-29T02:01:56;6.45;;;1.50;;
28523;SDS011;15734;50.904;6.922;2023-12-29T02:04:23;9.60;;;2.15;;
28523;SDS011;15734;50.904;6.922;2023-12-29T02:06:50;9.00;;;1.60;;
28523;SDS011;15734;50.904;6.922;2023-12-29T02:09:16;5.78;;;2.17;;
28523;SDS011;15734;50.904;6.922;2023-12-29T02:11:42;11.43;;;1.88;;
28523;SDS011;15734;50.904;6.922;2023-12-29T02:14:09;8.52;;;1.70;;
28523;SDS011;15734;50.904;6.922;2023-12-29T02:16:39;12.43;;;2.00;;
28523;SDS011;15734;50.904;6.922;2023-12-29T02:19:24;7.13;;;1.77;;
28523;SDS011;15734;50.904;6.922;2023-12-29T02:22:03;7.18;;;1.58;;
28523;SDS011;15734;50.904;6.922;2023-12-29T02:24:28;11.73;;;1.70;;
28523;SDS011;15734;50.904;6.922;2023-12-29T02:26:57;16.40;;;1.80;;
28523;SDS011;15734;50.904;6.922;2023-12-29T02:29:33;5.15;;;1.40;;
28523;SDS011;15734;50.904;6.922;2023-12-29T02:31:59;7.00;;;1.50;;
28523;SDS011;15734;50.904;6.922;2023-12-29T02:34:25;9.27;;;2.75;;
28523;SDS011;15734;50.904;6.922;2023-12-29T02:36:54;8.50;;;1.67;;
28523;SDS011;15734;50.904;6.922;2023-12-29T02:39:20;7.25;;;1.60;;
28523;SDS011;15734;50.904;6.922;2023-12-29T02:41:46;10.95;;;2.90;;
28523;SDS011;15734;50.904;6.922;2023-12-29T02:44:12;9.27;;;2.00;;
28523;SDS011;15734;50.904;6.922;2023-12-29T02:46:38;9.85;;;1.45;;
28523;SDS011;15734;50.904;6.922;2023-12-29T02:49:04;12.23;;;2.13;;
28523;SDS011;15734;50.904;6.922;2023-12-29T02:51:29;9.15;;;1.60;;
28523;SDS011;15734;50.904;6.922;2023-12-29T02:53:55;11.27;;;1.27;;
28523;SDS011;15734;50.904;6.922;2023-12-29T02:56:20;12.77;;;1.48;;
28523;SDS011;15734;50.904;6.922;2023-12-29T02:58:47;10.85;;;1.80;;
28523;SDS011;15734;50.904;6.922;2023-12-29T03:01:13;9.85;;;2.00;;
28523;SDS011;15734;50.904;6.922;2023-12-29T03:03:39;8.13;;;1.40;;
28523;SDS011;15734;50.904;6.922;2023-12-29T03:06:05;9.13;;;1.88;;
28523;SDS011;15734;50.904;6.922;2023-12-29T03:08:31;8.60;;;1.90;;
28523;SDS011;15734;50.904;6.922;2023-12-29T03:10:57;11.85;;;1.80;;
28523;SDS011;15734;50.904;6.922;2023-12-29T03:13:23;12.80;;;1.70;;
28523;SDS011;15734;50.904;6.922;2023-12-29T03:15:48;4.20;;;1.40;;
28523;SDS011;15734;50.904;6.922;2023-12-29T03:18:14;8.18;;;1.35;;
28523;SDS011;15734;50.904;6.922;2023-12-29T03:20:39;13.70;;;1.77;;
28523;SDS011;15734;50.904;6.922;2023-12-29T03:23:05;8.40;;;1.40;;
28523;SDS011;15734;50.904;6.922;2023-12-29T03:25:30;9.15;;;1.25;;
28523;SDS011;15734;50.904;6.922;2023-12-29T03:27:56;9.70;;;1.77;;
28523;SDS011;15734;50.904;6.922;2023-12-29T03:30:21;5.97;;;1.90;;
28523;SDS011;15734;50.904;6.922;2023-12-29T03:32:47;8.80;;;1.90;;
28523;SDS011;15734;50.904;6.922;2023-12-29T03:35:12;7.43;;;1.27;;
28523;SDS011;15734;50.904;6.922;2023-12-29T03:37:38;20.23;;;2.53;;
28523;SDS011;15734;50.904;6.922;2023-12-29T03:40:03;6.55;;;1.45;;
28523;SDS011;15734;50.904;6.922;2023-12-29T03:42:29;10.10;;;1.23;;
28523;SDS011;15734;50.904;6.922;2023-12-29T03:44:55;11.43;;;1.60;;
28523;SDS011;15734;50.904;6.922;2023-12-29T03:47:20;15.32;;;1.92;;
28523;SDS011;15734;50.904;6.922;2023-12-29T03:49:46;11.57;;;1.77;;
28523;SDS011;15734;50.904;6.922;2023-12-29T03:52:11;14.98;;;1.77;;
28523;SDS011;15734;50.904;6.922;2023-12-29T03:54:37;3.78;;;1.20;;
28523;SDS011;15734;50.904;6.922;2023-12-29T03:57:02;7.38;;;1.30;;
28523;SDS011;15734;50.904;6.922;2023-12-29T03:59:28;7.85;;;1.48;;
28523;SDS011;15734;50.904;6.922;2023-12-29T04:01:54;11.25;;;1.85;;
28523;SDS011;15734;50.904;6.922;2023-12-29T04:04:19;11.25;;;1.67;;
28523;SDS011;15734;50.904;6.922;2023-12-29T04:06:45;7.00;;;1.10;;
28523;SDS011;15734;50.904;6.922;2023-12-29T04:09:10;11.85;;;1.80;;
28523;SDS011;15734;50.904;6.922;2023-12-29T04:11:36;11.05;;;1.45;;
28523;SDS011;15734;50.904;6.922;2023-12-29T04:14:01;7.15;;;1.55;;
28523;SDS011;15734;50.904;6.922;2023-12-29T04:16:27;9.25;;;1.55;;
28523;SDS011;15734;50.904;6.922;2023-12-29T04:18:52;7.50;;;1.67;;
28523;SDS011;15734;50.904;6.922;2023-12-29T04:21:18;6.80;;;1.35;;
28523;SDS011;15734;50.904;6.922;2023-12-29T04:23:43;5.50;;;1.00;;
28523;SDS011;15734;50.904;6.922;2023-12-29T04:26:09;7.43;;;1.33;;
28523;SDS011;15734;50.904;6.922;2023-12-29T04:28:34;8.75;;;1.52;;
28523;SDS011;15734;50.904;6.922;2023-12-29T04:31:00;9.52;;;1.58;;
28523;SDS011;15734;50.904;6.922;2023-12-29T04:33:25;9.88;;;1.30;;
28523;SDS011;15734;50.904;6.922;2023-12-29T04:35:51;8.43;;;1.70;;
28523;SDS011;15734;50.904;6.922;2023-12-29T04:38:17;9.52;;;1.30;;
28523;SDS011;15734;50.904;6.922;2023-12-29T04:40:45;11.48;;;1.77;;
28523;SDS011;15734;50.904;6.922;2023-12-29T04:43:12;14.93;;;1.83;;
28523;SDS011;15734;50.904;6.922;2023-12-29T04:45:38;7.95;;;1.40;;
28523;SDS011;15734;50.904;6.922;2023-12-29T04:48:03;12.55;;;1.75;;
28523;SDS011;15734;50.904;6.922;2023-12-29T04:50:29;8.93;;;1.27;;
28523;SDS011;15734;50.904;6.922;2023-12-29T04:52:54;11.63;;;1.52;;
28523;SDS011;15734;50.904;6.922;2023-12-29T04:55:20;8.43;;;1.35;;
28523;SDS011;15734;50.904;6.922;2023-12-29T04:57:46;4.65;;;1.08;;
28523;SDS011;15734;50.904;6.922;2023-12-29T05:00:11;6.95;;;1.10;;
28523;SDS011;15734;50.904;6.922;2023-12-29T05:02:37;7.75;;;1.60;;
28523;SDS011;15734;50.904;6.922;2023-12-29T05:05:03;9.63;;;1.40;;
28523;SDS011;15734;50.904;6.922;2023-12-29T05:07:29;8.45;;;1.50;;
28523;SDS011;15734;50.904;6.922;2023-12-29T05:09:55;6.53;;;1.50;;
28523;SDS011;15734;50.904;6.922;2023-12-29T05:12:20;10.38;;;1.10;;
28523;SDS011;15734;50.904;6.922;2023-12-29T05:14:46;5.90;;;1.25;;
28523;SDS011;15734;50.904;6.922;2023-12-29T05:17:11;8.85;;;1.33;;
28523;SDS011;15734;50.904;6.922;2023-12-29T05:19:37;5.60;;;1.42;;
28523;SDS011;15734;50.904;6.922;2023-12-29T05:22:02;10.63;;;1.27;;
28523;SDS011;15734;50.904;6.922;2023-12-29T05:24:28;8.65;;;1.77;;
28523;SDS011;15734;50.904;6.922;2023-12-29T05:26:54;5.88;;;1.10;;
28523;SDS011;15734;50.904;6.922;2023-12-29T05:29:19;6.78;;;1.27;;
28523;SDS011;15734;50.904;6.922;2023-12-29T05:31:45;8.65;;;1.20;;
28523;SDS011;15734;50.904;6.922;2023-12-29T05:34:11;13.00;;;1.92;;
28523;SDS011;15734;50.904;6.922;2023-12-29T05:36:37;12.02;;;1.77;;
28523;SDS011;15734;50.904;6.922;2023-12-29T05:39:03;12.35;;;1.38;;
28523;SDS011;15734;50.904;6.922;2023-12-29T05:41:29;10.88;;;1.48;;
28523;SDS011;15734;50.904;6.922;2023-12-29T05:43:55;9.10;;;1.02;;
28523;SDS011;15734;50.904;6.922;2023-12-29T05:46:22;11.40;;;1.52;;
28523;SDS011;15734;50.904;6.922;2023-12-29T05:48:48;11.90;;;1.30;;
28523;SDS011;15734;50.904;6.922;2023-12-29T05:51:14;7.70;;;1.27;;
28523;SDS011;15734;50.904;6.922;2023-12-29T05:53:39;5.00;;;1.88;;
28523;SDS011;15734;50.904;6.922;2023-12-29T05:56:05;9.95;;;1.60;;
28523;SDS011;15734;50.904;6.922;2023-12-29T05:58:31;11.65;;;2.10;;
28523;SDS011;15734;50.904;6.922;2023-12-29T06:00:57;7.43;;;1.35;;
28523;SDS011;15734;50.904;6.922;2023-12-29T06:03:24;5.97;;;1.45;;
28523;SDS011;15734;50.904;6.922;2023-12-29T06:05:49;9.35;;;1.65;;
28523;SDS011;15734;50.904;6.922;2023-12-29T06:08:15;9.85;;;1.63;;
28523;SDS011;15734;50.904;6.922;2023-12-29T06:10:40;15.35;;;1.58;;
28523;SDS011;15734;50.904;6.922;2023-12-29T06:13:06;8.52;;;1.02;;
28523;SDS011;15734;50.904;6.922;2023-12-29T06:15:31;5.50;;;1.02;;
28523;SDS011;15734;50.904;6.922;2023-12-29T06:17:57;8.38;;;1.35;;
28523;SDS011;15734;50.904;6.922;2023-12-29T06:20:23;9.20;;;1.50;;
28523;SDS011;15734;50.904;6.922;2023-12-29T06:22:49;7.20;;;1.63;;
28523;SDS011;15734;50.904;6.922;2023-12-29T06:25:14;6.05;;;1.55;;
28523;SDS011;15734;50.904;6.922;2023-12-29T06:27:40;5.55;;;1.50;;
28523;SDS011;15734;50.904;6.922;2023-12-29T06:30:06;5.00;;;1.02;;
28523;SDS011;15734;50.904;6.922;2023-12-29T06:32:32;8.48;;;0.95;;
28523;SDS011;15734;50.904;6.922;2023-12-29T06:34:58;7.75;;;1.38;;
28523;SDS011;15734;50.904;6.922;2023-12-29T06:37:24;9.85;;;1.30;;
28523;SDS011;15734;50.904;6.922;2023-12-29T06:39:49;5.68;;;1.25;;
28523;SDS011;15734;50.904;6.922;2023-12-29T06:42:15;14.05;;;1.52;;
28523;SDS011;15734;50.904;6.922;2023-12-29T06:44:40;7.90;;;1.23;;
28523;SDS011;15734;50.904;6.922;2023-12-29T06:47:06;9.45;;;1.40;;
28523;SDS011;15734;50.904;6.922;2023-12-29T06:49:32;4.28;;;1.23;;
28523;SDS011;15734;50.904;6.922;2023-12-29T06:51:59;6.53;;;1.15;;
28523;SDS011;15734;50.904;6.922;2023-12-29T06:54:24;5.93;;;1.27;;
28523;SDS011;15734;50.904;6.922;2023-12-29T06:56:50;9.52;;;1.42;;
28523;SDS011;15734;50.904;6.922;2023-12-29T06:59:15;8.10;;;1.52;;
28523;SDS011;15734;50.904;6.922;2023-12-29T07:01:41;6.18;;;1.13;;
28523;SDS011;15734;50.904;6.922;2023-12-29T07:04:06;4.85;;;1.00;;
28523;SDS011;15734;50.904;6.922;2023-12-29T07:06:35;5.72;;;1.20;;
28523;SDS011;15734;50.904;6.922;2023-12-29T07:09:01;3.45;;;1.98;;
28523;SDS011;15734;50.904;6.922;2023-12-29T07:11:27;7.40;;;1.20;;
28523;SDS011;15734;50.904;6.922;2023-12-29T07:13:53;5.75;;;1.40;;
28523;SDS011;15734;50.904;6.922;2023-12-29T07:16:19;6.28;;;1.27;;
28523;SDS011;15734;50.904;6.922;2023-12-29T07:18:45;7.53;;;1.00;;
28523;SDS011;15734;50.904;6.922;2023-12-29T07:21:11;4.50;;;0.98;;
28523;SDS011;15734;50.904;6.922;2023-12-29T07:23:37;7.82;;;1.27;;
28523;SDS011;15734;50.904;6.922;2023-12-29T07:26:03;6.03;;;1.00;;
28523;SDS011;15734;50.904;6.922;2023-12-29T07:28:29;7.30;;;1.10;;
28523;SDS011;15734;50.904;6.922;2023-12-29T07:30:56;4.70;;;0.88;;
28523;SDS011;15734;50.904;6.922;2023-12-29T07:33:22;5.15;;;1.35;;
28523;SDS011;15734;50.904;6.922;2023-12-29T07:35:48;4.30;;;1.20;;
28523;SDS011;15734;50.904;6.922;2023-12-29T07:38:14;8.23;;;1.13;;
28523;SDS011;15734;50.904;6.922;2023-12-29T07:40:40;6.45;;;0.85;;
28523;SDS011;15734;50.904;6.922;2023-12-29T07:43:05;4.72;;;0.98;;
28523;SDS011;15734;50.904;6.922;2023-12-29T07:45:31;8.60;;;1.52;;
28523;SDS011;15734;50.904;6.922;2023-12-29T07:47:56;4.35;;;0.93;;
28523;SDS011;15734;50.904;6.922;2023-12-29T07:50:22;4.97;;;1.13;;
28523;SDS011;15734;50.904;6.922;2023-12-29T07:52:48;5.40;;;1.42;;
28523;SDS011;15734;50.904;6.922;2023-12-29T07:55:13;5.97;;;0.70;;
28523;SDS011;15734;50.904;6.922;2023-12-29T07:57:41;3.70;;;0.60;;
28523;SDS011;15734;50.904;6.922;2023-12-29T08:00:08;4.97;;;0.90;;
28523;SDS011;15734;50.904;6.922;2023-12-29T08:02:34;5.65;;;0.80;;
28523;SDS011;15734;50.904;6.922;2023-12-29T08:05:00;3.63;;;0.60;;
28523;SDS011;15734;50.904;6.922;2023-12-29T08:07:25;6.20;;;1.05;;
28523;SDS011;15734;50.904;6.922;2023-12-29T08:09:51;2.58;;;0.63;;
28523;SDS011;15734;50.904;6.922;2023-12-29T08:12:16;4.90;;;0.88;;
28523;SDS011;15734;50.904;6.922;2023-12-29T08:14:42;7.63;;;1.33;;
28523;SDS011;15734;50.904;6.922;2023-12-29T08:17:07;5.75;;;1.00;;
28523;SDS011;15734;50.904;6.922;2023-12-29T08:19:34;13.85;;;1.02;;
28523;SDS011;15734;50.904;6.922;2023-12-29T08:21:59;7.55;;;1.40;;
28523;SDS011;15734;50.904;6.922;2023-12-29T08:24:25;7.50;;;1.52;;
28523;SDS011;15734;50.904;6.922;2023-12-29T08:26:50;5.20;;;1.10;;
28523;SDS011;15734;50.904;6.922;2023-12-29T08:29:16;11.45;;;1.63;;
28523;SDS011;15734;50.904;6.922;2023-12-29T08:31:42;13.38;;;2.03;;
28523;SDS011;15734;50.904;6.922;2023-12-29T08:34:08;4.82;;;1.23;;
28523;SDS011;15734;50.904;6.922;2023-12-29T08:36:34;12.70;;;1.50;;
28523;SDS011;15734;50.904;6.922;2023-12-29T08:39:00;10.05;;;1.33;;
28523;SDS011;15734;50.904;6.922;2023-12-29T08:41:26;11.13;;;1.45;;
28523;SDS011;15734;50.904;6.922;2023-12-29T08:43:51;5.28;;;1.48;;
28523;SDS011;15734;50.904;6.922;2023-12-29T08:46:18;4.10;;;1.40;;
28523;SDS011;15734;50.904;6.922;2023-12-29T08:48:43;9.05;;;1.48;;
28523;SDS011;15734;50.904;6.922;2023-12-29T08:51:09;3.95;;;1.75;;
28523;SDS011;15734;50.904;6.922;2023-12-29T08:53:35;7.60;;;1.27;;
28523;SDS011;15734;50.904;6.922;2023-12-29T08:56:04;10.00;;;1.55;;
28523;SDS011;15734;50.904;6.922;2023-12-29T08:58:29;6.45;;;1.58;;
28523;SDS011;15734;50.904;6.922;2023-12-29T09:00:56;11.68;;;1.67;;
28523;SDS011;15734;50.904;6.922;2023-12-29T09:03:21;6.18;;;1.73;;
28523;SDS011;15734;50.904;6.922;2023-12-29T09:05:47;6.47;;;1.63;;
28523;SDS011;15734;50.904;6.922;2023-12-29T09:08:12;9.82;;;1.38;;
28523;SDS011;15734;50.904;6.922;2023-12-29T09:10:38;6.20;;;1.45;;
28523;SDS011;15734;50.904;6.922;2023-12-29T09:13:04;5.30;;;1.20;;
28523;SDS011;15734;50.904;6.922;2023-12-29T09:15:30;5.05;;;1.63;;
28523;SDS011;15734;50.904;6.922;2023-12-29T09:17:55;8.65;;;1.67;;
28523;SDS011;15734;50.904;6.922;2023-12-29T09:20:21;7.28;;;1.77;;
28523;SDS011;15734;50.904;6.922;2023-12-29T09:22:46;10.10;;;1.52;;
28523;SDS011;15734;50.904;6.922;2023-12-29T09:25:12;6.88;;;1.33;;
28523;SDS011;15734;50.904;6.922;2023-12-29T09:27:38;8.57;;;1.83;;
28523;SDS011;15734;50.904;6.922;2023-12-29T09:30:04;6.18;;;1.15;;
28523;SDS011;15734;50.904;6.922;2023-12-29T09:32:30;5.32;;;1.00;;
28523;SDS011;15734;50.904;6.922;2023-12-29T09:34:55;6.10;;;1.05;;
28523;SDS011;15734;50.904;6.922;2023-12-29T09:37:21;6.55;;;1.30;;
28523;SDS011;15734;50.904;6.922;2023-12-29T09:39:47;7.65;;;1.25;;
28523;SDS011;15734;50.904;6.922;2023-12-29T09:42:13;6.35;;;1.05;;
28523;SDS011;15734;50.904;6.922;2023-12-29T09:44:45;12.73;;;1.40;;
28523;SDS011;15734;50.904;6.922;2023-12-29T09:47:14;8.68;;;1.38;;
28523;SDS011;15734;50.904;6.922;2023-12-29T09:49:41;12.63;;;1.48;;
28523;SDS011;15734;50.904;6.922;2023-12-29T09:52:09;5.93;;;1.30;;
28523;SDS011;15734;50.904;6.922;2023-12-29T09:54:37;4.65;;;1.13;;
28523;SDS011;15734;50.904;6.922;2023-12-29T09:57:04;4.32;;;1.10;;
28523;SDS011;15734;50.904;6.922;2023-12-29T09:59:32;4.75;;;1.50;;
28523;SDS011;15734;50.904;6.922;2023-12-29T10:02:01;5.38;;;1.80;;
28523;SDS011;15734;50.904;6.922;2023-12-29T10:04:29;3.42;;;1.23;;
28523;SDS011;15734;50.904;6.922;2023-12-29T10:06:54;7.85;;;1.30;;
28523;SDS011;15734;50.904;6.922;2023-12-29T10:09:25;4.97;;;1.25;;
28523;SDS011;15734;50.904;6.922;2023-12-29T10:11:52;4.35;;;1.00;;
28523;SDS011;15734;50.904;6.922;2023-12-29T10:14:21;5.47;;;1.25;;
28523;SDS011;15734;50.904;6.922;2023-12-29T10:16:58;7.35;;;1.05;;
28523;SDS011;15734;50.904;6.922;2023-12-29T10:22:20;5.18;;;1.00;;
28523;SDS011;15734;50.904;6.922;2023-12-29T10:24:51;2.80;;;0.70;;
28523;SDS011;15734;50.904;6.922;2023-12-29T10:27:17;4.15;;;0.80;;
28523;SDS011;15734;50.904;6.922;2023-12-29T10:29:43;4.35;;;1.55;;
28523;SDS011;15734;50.904;6.922;2023-12-29T10:32:09;2.88;;;0.98;;
28523;SDS011;15734;50.904;6.922;2023-12-29T10:34:34;6.15;;;1.10;;
28523;SDS011;15734;50.904;6.922;2023-12-29T10:37:00;14.93;;;1.48;;
28523;SDS011;15734;50.904;6.922;2023-12-29T10:39:28;4.82;;;1.30;;
28523;SDS011;15734;50.904;6.922;2023-12-29T10:42:04;5.00;;;1.20;;
28523;SDS011;15734;50.904;6.922;2023-12-29T10:44:31;4.70;;;1.13;;
28523;SDS011;15734;50.904;6.922;2023-12-29T10:46:57;2.92;;;1.15;;
28523;SDS011;15734;50.904;6.922;2023-12-29T10:49:22;5.05;;;1.27;;
28523;SDS011;15734;50.904;6.922;2023-12-29T10:51:48;3.78;;;0.90;;
28523;SDS011;15734;50.904;6.922;2023-12-29T10:54:19;4.25;;;0.80;;
28523;SDS011;15734;50.904;6.922;2023-12-29T10:57:00;2.88;;;1.00;;
28523;SDS011;15734;50.904;6.922;2023-12-29T10:59:27;2.22;;;0.80;;
28523;SDS011;15734;50.904;6.922;2023-12-29T11:01:53;2.08;;;0.60;;
28523;SDS011;15734;50.904;6.922;2023-12-29T11:04:21;2.63;;;0.60;;
28523;SDS011;15734;50.904;6.922;2023-12-29T11:06:47;7.32;;;0.73;;
28523;SDS011;15734;50.904;6.922;2023-12-29T11:09:23;2.33;;;0.60;;
28523;SDS011;15734;50.904;6.922;2023-12-29T11:12:00;2.63;;;0.57;;
28523;SDS011;15734;50.904;6.922;2023-12-29T11:14:26;2.05;;;0.63;;
28523;SDS011;15734;50.904;6.922;2023-12-29T11:16:56;4.38;;;0.60;;
28523;SDS011;15734;50.904;6.922;2023-12-29T11:19:23;3.75;;;0.57;;
28523;SDS011;15734;50.904;6.922;2023-12-29T11:21:48;1.27;;;0.57;;
28523;SDS011;15734;50.904;6.922;2023-12-29T11:24:18;2.20;;;0.55;;
28523;SDS011;15734;50.904;6.922;2023-12-29T11:26:44;5.97;;;0.60;;
28523;SDS011;15734;50.904;6.922;2023-12-29T11:29:11;3.85;;;0.60;;
28523;SDS011;15734;50.904;6.922;2023-12-29T11:31:37;0.73;;;0.50;;
28523;SDS011;15734;50.904;6.922;2023-12-29T11:34:10;2.15;;;0.90;;
28523;SDS011;15734;50.904;6.922;2023-12-29T11:36:43;4.13;;;0.85;;
28523;SDS011;15734;50.904;6.922;2023-12-29T11:42:21;4.90;;;0.68;;
28523;SDS011;15734;50.904;6.922;2023-12-29T11:47:36;2.67;;;0.70;;
28523;SDS011;15734;50.904;6.922;2023-12-29T11:50:02;0.98;;;0.50;;
28523;SDS011;15734;50.904;6.922;2023-12-29T11:52:35;3.05;;;0.60;;
28523;SDS011;15734;50.904;6.922;2023-12-29T11:55:12;2.72;;;0.70;;
28523;SDS011;15734;50.904;6.922;2023-12-29T11:57:39;4.57;;;0.70;;
28523;SDS011;15734;50.904;6.922;2023-12-29T12:00:06;2.80;;;0.52;;
28523;SDS011;15734;50.904;6.922;2023-12-29T12:02:33;5.35;;;0.75;;
28523;SDS011;15734;50.904;6.922;2023-12-29T12:04:58;3.17;;;0.55;;
28523;SDS011;15734;50.904;6.922;2023-12-29T12:09:49;1.25;;;0.50;;
28523;SDS011;15734;50.904;6.922;2023-12-29T12:12:38;1.00;;;0.70;;
28523;SDS011;15734;50.904;6.922;2023-12-29T12:17:57;4.05;;;0.63;;
28523;SDS011;15734;50.904;6.922;2023-12-29T12:20:32;1.98;;;0.50;;
28523;SDS011;15734;50.904;6.922;2023-12-29T12:22:59;3.10;;;0.60;;
28523;SDS011;15734;50.904;6.922;2023-12-29T12:25:31;2.65;;;0.80;;
28523;SDS011;15734;50.904;6.922;2023-12-29T12:28:05;3.30;;;0.40;;
28523;SDS011;15734;50.904;6.922;2023-12-29T12:30:32;2.47;;;0.50;;
28523;SDS011;15734;50.904;6.922;2023-12-29T12:33:00;1.40;;;0.38;;
28523;SDS011;15734;50.904;6.922;2023-12-29T12:35:28;1.63;;;1.10;;
28523;SDS011;15734;50.904;6.922;2023-12-29T12:38:06;1.48;;;0.60;;
28523;SDS011;15734;50.904;6.922;2023-12-29T12:40:34;1.80;;;0.40;;
28523;SDS011;15734;50.904;6.922;2023-12-29T12:42:59;0.70;;;0.52;;
28523;SDS011;15734;50.904;6.922;2023-12-29T12:45:25;0.45;;;0.45;;
28523;SDS011;15734;50.904;6.922;2023-12-29T12:48:00;1.63;;;0.65;;
28523;SDS011;15734;50.904;6.922;2023-12-29T12:50:28;2.38;;;0.80;;
28523;SDS011;15734;50.904;6.922;2023-12-29T12:52:55;3.92;;;0.57;;
28523;SDS011;15734;50.904;6.922;2023-12-29T12:55:23;1.65;;;0.45;;
28523;SDS011;15734;50.904;6.922;2023-12-29T12:57:49;2.78;;;0.77;;
28523;SDS011;15734;50.904;6.922;2023-12-29T13:00:14;3.45;;;0.50;;
28523;SDS011;15734;50.904;6.922;2023-12-29T13:02:41;1.85;;;0.40;;
28523;SDS011;15734;50.904;6.922;2023-12-29T13:05:10;2.55;;;0.60;;
28523;SDS011;15734;50.904;6.922;2023-12-29T13:07:36;1.50;;;0.47;;
28523;SDS011;15734;50.904;6.922;2023-12-29T13:10:02;1.45;;;0.50;;
28523;SDS011;15734;50.904;6.922;2023-12-29T13:12:29;1.98;;;0.50;;
28523;SDS011;15734;50.904;6.922;2023-12-29T13:15:04;2.60;;;0.80;;
28523;SDS011;15734;50.904;6.922;2023-12-29T13:17:33;2.17;;;0.68;;
28523;SDS011;15734;50.904;6.922;2023-12-29T13:19:58;1.88;;;0.50;;
28523;SDS011;15734;50.904;6.922;2023-12-29T13:22:24;0.57;;;0.40;;
28523;SDS011;15734;50.904;6.922;2023-12-29T13:24:52;1.48;;;0.47;;
28523;SDS011;15734;50.904;6.922;2023-12-29T13:27:19;3.70;;;0.60;;
28523;SDS011;15734;50.904;6.922;2023-12-29T13:29:44;6.38;;;0.70;;
28523;SDS011;15734;50.904;6.922;2023-12-29T13:37:36;3.85;;;0.73;;
28523;SDS011;15734;50.904;6.922;2023-12-29T13:40:11;2.80;;;0.40;;
28523;SDS011;15734;50.904;6.922;2023-12-29T13:42:49;0.77;;;0.40;;
28523;SDS011;15734;50.904;6.922;2023-12-29T13:45:18;1.95;;;0.60;;
28523;SDS011;15734;50.904;6.922;2023-12-29T13:47:45;1.70;;;0.60;;
28523;SDS011;15734;50.904;6.922;2023-12-29T13:50:11;3.13;;;0.75;;
28523;SDS011;15734;50.904;6.922;2023-12-29T13:52:37;1.83;;;0.52;;
28523;SDS011;15734;50.904;6.922;2023-12-29T13:55:03;2.20;;;0.50;;
28523;SDS011;15734;50.904;6.922;2023-12-29T13:57:31;2.63;;;0.65;;
28523;SDS011;15734;50.904;6.922;2023-12-29T13:59:57;6.45;;;0.68;;
28523;SDS011;15734;50.904;6.922;2023-12-29T14:02:38;1.20;;;0.70;;
28523;SDS011;15734;50.904;6.922;2023-12-29T14:05:11;1.27;;;0.90;;
28523;SDS011;15734;50.904;6.922;2023-12-29T14:07:44;3.97;;;0.70;;
28523;SDS011;15734;50.904;6.922;2023-12-29T14:10:12;4.53;;;0.90;;
28523;SDS011;15734;50.904;6.922;2023-12-29T14:12:38;3.92;;;0.60;;
28523;SDS011;15734;50.904;6.922;2023-12-29T14:15:04;1.27;;;0.60;;
28523;SDS011;15734;50.904;6.922;2023-12-29T14:17:30;5.30;;;2.13;;
28523;SDS011;15734;50.904;6.922;2023-12-29T14:19:56;5.20;;;0.70;;
28523;SDS011;15734;50.904;6.922;2023-12-29T14:22:27;2.92;;;0.88;;
28523;SDS011;15734;50.904;6.922;2023-12-29T14:25:02;0.82;;;0.60;;
28523;SDS011;15734;50.904;6.922;2023-12-29T14:27:29;0.60;;;0.55;;
28523;SDS011;15734;50.904;6.922;2023-12-29T14:29:55;0.75;;;0.40;;
28523;SDS011;15734;50.904;6.922;2023-12-29T14:32:21;2.67;;;0.63;;
28523;SDS011;15734;50.904;6.922;2023-12-29T14:34:48;2.28;;;0.60;;
28523;SDS011;15734;50.904;6.922;2023-12-29T14:37:20;2.35;;;0.57;;
28523;SDS011;15734;50.904;6.922;2023-12-29T14:39:51;2.38;;;0.60;;
28523;SDS011;15734;50.904;6.922;2023-12-29T14:42:17;7.38;;;0.77;;
28523;SDS011;15734;50.904;6.922;2023-12-29T14:44:46;1.73;;;1.05;;
28523;SDS011;15734;50.904;6.922;2023-12-29T14:47:13;5.43;;;1.45;;
28523;SDS011;15734;50.904;6.922;2023-12-29T14:49:39;6.22;;;1.77;;
28523;SDS011;15734;50.904;6.922;2023-12-29T14:52:05;4.85;;;1.42;;
28523;SDS011;15734;50.904;6.922;2023-12-29T14:54:31;2.92;;;1.02;;
28523;SDS011;15734;50.904;6.922;2023-12-29T14:56:56;4.32;;;0.90;;
28523;SDS011;15734;50.904;6.922;2023-12-29T14:59:22;1.83;;;0.70;;
28523;SDS011;15734;50.904;6.922;2023-12-29T15:01:47;5.65;;;0.90;;